sensor_id;sensor_type;location;lat;lon;timestamp;pressure;altitude;pressure_sealevel;temperature;humidity
39051;BME280;24805;55.852;37.644;2023-02-24T00:03:19;99022.69;;;-5.81;43.83
39051;BME280;24805;55.852;37.644;2023-02-24T00:08:21;99025.56;;;-5.72;44.09
39051;BME280;24805;55.852;37.644;2023-02-24T00:13:23;99018.38;;;-5.67;43.91
39051;BME280;24805;55.852;37.644;2023-02-24T00:18:25;99013.69;;;-5.60;43.59
39051;BME280;24805;55.852;37.644;2023-02-24T00:23:27;99004.63;;;-5.67;43.52
39051;BME280;24805;55.852;37.644;2023-02-24T00:28:29;98994.63;;;-5.73;43.55
39051;BME280;24805;55.852;37.644;2023-02-24T00:33:33;98996.13;;;-5.69;43.64
39051;BME280;24805;55.852;37.644;2023-02-24T00:38:37;98973.38;;;-5.78;44.19
39051;BME280;24805;55.852;37.644;2023-02-24T00:43:40;98968.06;;;-5.75;43.80
39051;BME280;24805;55.852;37.644;2023-02-24T00:48:48;98956.72;;;-5.73;43.30
39051;BME280;24805;55.852;37.644;2023-02-24T00:53:55;98965.13;;;-5.69;43.64
39051;BME280;24805;55.852;37.644;2023-02-24T00:58:58;98943.78;;;-5.73;43.35
39051;BME280;24805;55.852;37.644;2023-02-24T01:04:03;98942.25;;;-5.61;43.31
39051;BME280;24805;55.852;37.644;2023-02-24T01:09:06;98917.41;;;-5.64;43.45
39051;BME280;24805;55.852;37.644;2023-02-24T01:14:15;98913.34;;;-5.53;42.45
39051;BME280;24805;55.852;37.644;2023-02-24T01:19:24;98928.03;;;-5.54;42.35
39051;BME280;24805;55.852;37.644;2023-02-24T01:24:36;98906.06;;;-5.47;42.22
39051;BME280;24805;55.852;37.644;2023-02-24T01:29:40;98892.03;;;-5.43;41.76
39051;BME280;24805;55.852;37.644;2023-02-24T01:34:43;98900.72;;;-5.44;42.52
39051;BME280;24805;55.852;37.644;2023-02-24T01:39:46;98892.97;;;-5.44;41.75
39051;BME280;24805;55.852;37.644;2023-02-24T01:49:53;98869.63;;;-5.42;41.70
39051;BME280;24805;55.852;37.644;2023-02-24T01:55:23;98857.31;;;-5.39;41.27
39051;BME280;24805;55.852;37.644;2023-02-24T02:00:29;98845.88;;;-5.49;41.62
39051;BME280;24805;55.852;37.644;2023-02-24T02:05:39;98837.66;;;-5.56;41.48
39051;BME280;24805;55.852;37.644;2023-02-24T02:10:43;98840.63;;;-5.62;42.48
39051;BME280;24805;55.852;37.644;2023-02-24T02:38:12;98776.75;;;-5.74;41.99
39051;BME280;24805;55.852;37.644;2023-02-24T02:43:41;98777.03;;;-5.64;41.33
39051;BME280;24805;55.852;37.644;2023-02-24T02:48:57;98756.91;;;-5.59;41.97
39051;BME280;24805;55.852;37.644;2023-02-24T02:54:39;98750.69;;;-5.42;42.80
39051;BME280;24805;55.852;37.644;2023-02-24T03:00:18;98740.50;;;-5.31;42.09
39051;BME280;24805;55.852;37.644;2023-02-24T03:05:29;98739.47;;;-5.29;42.05
39051;BME280;24805;55.852;37.644;2023-02-24T03:10:32;98724.25;;;-5.33;42.17
39051;BME280;24805;55.852;37.644;2023-02-24T03:15:35;98703.16;;;-5.40;42.52
39051;BME280;24805;55.852;37.644;2023-02-24T03:20:52;98694.25;;;-5.36;43.03
39051;BME280;24805;55.852;37.644;2023-02-24T03:31:24;98679.34;;;-5.45;42.97
39051;BME280;24805;55.852;37.644;2023-02-24T03:36:31;98666.59;;;-5.48;42.94
39051;BME280;24805;55.852;37.644;2023-02-24T03:41:43;98618.31;;;-5.60;42.89
39051;BME280;24805;55.852;37.644;2023-02-24T03:46:47;98633.75;;;-5.46;43.15
39051;BME280;24805;55.852;37.644;2023-02-24T03:52:32;98623.84;;;-5.27;42.29
39051;BME280;24805;55.852;37.644;2023-02-24T04:08:38;98604.84;;;-5.26;43.81
39051;BME280;24805;55.852;37.644;2023-02-24T04:13:52;98584.34;;;-5.16;43.06
39051;BME280;24805;55.852;37.644;2023-02-24T04:19:03;98559.09;;;-5.38;43.27
39051;BME280;24805;55.852;37.644;2023-02-24T04:24:10;98589.22;;;-5.24;43.72
39051;BME280;24805;55.852;37.644;2023-02-24T04:29:21;98572.03;;;-5.25;43.88
39051;BME280;24805;55.852;37.644;2023-02-24T04:34:24;98556.44;;;-5.24;43.76
39051;BME280;24805;55.852;37.644;2023-02-24T04:39:28;98558.91;;;-5.22;43.20
39051;BME280;24805;55.852;37.644;2023-02-24T04:44:33;98565.53;;;-5.31;43.42
39051;BME280;24805;55.852;37.644;2023-02-24T04:49:35;98567.91;;;-5.28;43.93
39051;BME280;24805;55.852;37.644;2023-02-24T04:54:37;98563.88;;;-5.19;43.58
39051;BME280;24805;55.852;37.644;2023-02-24T04:59:39;98552.38;;;-5.15;43.88
39051;BME280;24805;55.852;37.644;2023-02-24T05:04:41;98542.38;;;-5.07;43.09
39051;BME280;24805;55.852;37.644;2023-02-24T05:09:44;98524.34;;;-4.96;42.96
39051;BME280;24805;55.852;37.644;2023-02-24T05:14:47;98526.44;;;-5.01;44.10
39051;BME280;24805;55.852;37.644;2023-02-24T05:19:50;98507.78;;;-4.93;43.81
39051;BME280;24805;55.852;37.644;2023-02-24T05:25:10;98502.63;;;-4.80;43.48
39051;BME280;24805;55.852;37.644;2023-02-24T05:30:15;98505.28;;;-4.69;43.35
39051;BME280;24805;55.852;37.644;2023-02-24T05:35:17;98488.28;;;-4.61;43.63
39051;BME280;24805;55.852;37.644;2023-02-24T05:40:20;98471.59;;;-4.57;42.81
39051;BME280;24805;55.852;37.644;2023-02-24T05:45:25;98476.13;;;-4.47;43.18
39051;BME280;24805;55.852;37.644;2023-02-24T05:50:31;98462.97;;;-4.44;43.22
39051;BME280;24805;55.852;37.644;2023-02-24T05:55:33;98463.78;;;-4.44;42.87
39051;BME280;24805;55.852;37.644;2023-02-24T06:00:37;98458.88;;;-4.36;43.34
39051;BME280;24805;55.852;37.644;2023-02-24T06:05:40;98448.41;;;-4.34;43.91
39051;BME280;24805;55.852;37.644;2023-02-24T06:10:43;98417.72;;;-4.28;43.56
39051;BME280;24805;55.852;37.644;2023-02-24T06:15:54;98429.25;;;-4.32;44.98
39051;BME280;24805;55.852;37.644;2023-02-24T06:20:56;98419.09;;;-4.35;45.13
39051;BME280;24805;55.852;37.644;2023-02-24T06:26:03;98424.34;;;-4.24;45.64
39051;BME280;24805;55.852;37.644;2023-02-24T06:31:05;98415.78;;;-4.37;46.65
39051;BME280;24805;55.852;37.644;2023-02-24T06:36:07;98411.19;;;-4.44;47.47
39051;BME280;24805;55.852;37.644;2023-02-24T06:41:09;98403.97;;;-4.52;48.82
39051;BME280;24805;55.852;37.644;2023-02-24T06:46:13;98403.13;;;-4.53;50.31
39051;BME280;24805;55.852;37.644;2023-02-24T06:51:16;98398.28;;;-4.57;51.16
39051;BME280;24805;55.852;37.644;2023-02-24T06:56:18;98380.56;;;-4.51;51.87
39051;BME280;24805;55.852;37.644;2023-02-24T07:01:22;98339.00;;;-4.60;51.58
39051;BME280;24805;55.852;37.644;2023-02-24T07:06:31;98362.81;;;-4.44;51.80
39051;BME280;24805;55.852;37.644;2023-02-24T07:11:36;98356.81;;;-4.44;53.77
39051;BME280;24805;55.852;37.644;2023-02-24T07:16:39;98362.72;;;-4.42;53.73
39051;BME280;24805;55.852;37.644;2023-02-24T07:21:46;98352.38;;;-4.31;52.47
39051;BME280;24805;55.852;37.644;2023-02-24T07:26:55;98338.63;;;-4.32;54.48
39051;BME280;24805;55.852;37.644;2023-02-24T07:32:00;98331.56;;;-4.19;53.39
39051;BME280;24805;55.852;37.644;2023-02-24T07:37:04;98332.41;;;-4.18;53.71
39051;BME280;24805;55.852;37.644;2023-02-24T07:42:10;98321.84;;;-4.04;52.49
39051;BME280;24805;55.852;37.644;2023-02-24T07:47:18;98329.25;;;-3.99;53.30
39051;BME280;24805;55.852;37.644;2023-02-24T07:52:22;98319.16;;;-3.91;53.25
39051;BME280;24805;55.852;37.644;2023-02-24T07:57:24;98310.94;;;-3.85;53.45
39051;BME280;24805;55.852;37.644;2023-02-24T08:02:26;98302.91;;;-3.71;52.69
39051;BME280;24805;55.852;37.644;2023-02-24T08:07:30;98300.66;;;-3.75;53.75
39051;BME280;24805;55.852;37.644;2023-02-24T08:12:34;98291.72;;;-3.71;53.44
39051;BME280;24805;55.852;37.644;2023-02-24T08:17:36;98283.25;;;-3.62;54.04
39051;BME280;24805;55.852;37.644;2023-02-24T08:22:43;98288.75;;;-3.44;54.03
39051;BME280;24805;55.852;37.644;2023-02-24T08:27:50;98277.41;;;-3.32;54.19
39051;BME280;24805;55.852;37.644;2023-02-24T08:33:10;98277.31;;;-2.99;51.37
39051;BME280;24805;55.852;37.644;2023-02-24T08:38:17;98274.41;;;-3.05;52.94
39051;BME280;24805;55.852;37.644;2023-02-24T08:48:42;98260.53;;;-2.84;55.29
39051;BME280;24805;55.852;37.644;2023-02-24T08:53:45;98263.91;;;-2.72;54.90
39051;BME280;24805;55.852;37.644;2023-02-24T08:58:49;98270.38;;;-2.46;54.77
39051;BME280;24805;55.852;37.644;2023-02-24T09:03:54;98261.19;;;-2.29;53.20
39051;BME280;24805;55.852;37.644;2023-02-24T09:08:56;98259.06;;;-2.45;54.22
39051;BME280;24805;55.852;37.644;2023-02-24T09:14:18;98257.41;;;-2.46;54.49
39051;BME280;24805;55.852;37.644;2023-02-24T09:25:06;98231.53;;;-2.26;53.46
39051;BME280;24805;55.852;37.644;2023-02-24T09:35:59;98231.19;;;-2.12;53.79
39051;BME280;24805;55.852;37.644;2023-02-24T09:46:45;98198.63;;;-1.86;54.33
39051;BME280;24805;55.852;37.644;2023-02-24T09:51:55;98205.47;;;-1.85;54.72
39051;BME280;24805;55.852;37.644;2023-02-24T09:57:15;98182.53;;;-1.70;54.81
39051;BME280;24805;55.852;37.644;2023-02-24T10:02:39;98175.81;;;-1.73;53.69
39051;BME280;24805;55.852;37.644;2023-02-24T10:07:45;98177.88;;;-1.57;53.78
39051;BME280;24805;55.852;37.644;2023-02-24T10:12:56;98167.94;;;-1.42;54.02
39051;BME280;24805;55.852;37.644;2023-02-24T10:18:17;98153.84;;;-1.30;53.05
39051;BME280;24805;55.852;37.644;2023-02-24T10:24:01;98144.13;;;-1.09;53.32
39051;BME280;24805;55.852;37.644;2023-02-24T10:34:34;98127.66;;;-0.80;53.70
39051;BME280;24805;55.852;37.644;2023-02-24T10:39:36;98125.84;;;-0.70;53.69
39051;BME280;24805;55.852;37.644;2023-02-24T10:44:47;98117.69;;;-0.57;53.87
39051;BME280;24805;55.852;37.644;2023-02-24T10:50:05;98120.25;;;-0.38;53.48
39051;BME280;24805;55.852;37.644;2023-02-24T10:55:22;98110.97;;;-0.13;53.58
39051;BME280;24805;55.852;37.644;2023-02-24T11:00:48;98111.78;;;-0.13;52.89
39051;BME280;24805;55.852;37.644;2023-02-24T11:06:21;98101.94;;;0.09;53.13
39051;BME280;24805;55.852;37.644;2023-02-24T11:11:42;98098.75;;;0.15;53.18
39051;BME280;24805;55.852;37.644;2023-02-24T11:17:18;98101.91;;;0.54;51.51
39051;BME280;24805;55.852;37.644;2023-02-24T11:22:25;98096.59;;;0.46;51.92
39051;BME280;24805;55.852;37.644;2023-02-24T11:27:29;98095.03;;;0.35;51.33
39051;BME280;24805;55.852;37.644;2023-02-24T11:33:02;98088.34;;;0.50;52.01
39051;BME280;24805;55.852;37.644;2023-02-24T11:38:32;98075.44;;;0.49;51.30
39051;BME280;24805;55.852;37.644;2023-02-24T11:43:39;98077.66;;;0.44;51.43
39051;BME280;24805;55.852;37.644;2023-02-24T11:48:53;98068.19;;;0.43;51.70
39051;BME280;24805;55.852;37.644;2023-02-24T11:54:15;98059.06;;;0.39;50.90
39051;BME280;24805;55.852;37.644;2023-02-24T11:59:40;98057.22;;;0.21;51.31
39051;BME280;24805;55.852;37.644;2023-02-24T12:05:12;98049.47;;;-0.06;51.13
39051;BME280;24805;55.852;37.644;2023-02-24T12:10:37;98036.03;;;-0.39;51.49
39051;BME280;24805;55.852;37.644;2023-02-24T12:15:44;98028.31;;;-0.58;52.90
39051;BME280;24805;55.852;37.644;2023-02-24T12:21:10;98039.34;;;-0.74;52.91
39051;BME280;24805;55.852;37.644;2023-02-24T12:26:40;98023.69;;;-0.64;53.13
39051;BME280;24805;55.852;37.644;2023-02-24T12:52:45;98005.88;;;-1.06;53.80
39051;BME280;24805;55.852;37.644;2023-02-24T13:13:59;97988.38;;;-1.13;53.90
39051;BME280;24805;55.852;37.644;2023-02-24T13:19:18;97984.72;;;-1.20;54.32
39051;BME280;24805;55.852;37.644;2023-02-24T13:24:23;97970.47;;;-1.35;54.38
39051;BME280;24805;55.852;37.644;2023-02-24T13:29:26;97969.75;;;-1.18;54.20
39051;BME280;24805;55.852;37.644;2023-02-24T13:34:31;97982.34;;;-1.14;54.79
39051;BME280;24805;55.852;37.644;2023-02-24T13:39:36;97955.63;;;-1.16;55.09
39051;BME280;24805;55.852;37.644;2023-02-24T13:44:47;97963.97;;;-1.12;54.45
39051;BME280;24805;55.852;37.644;2023-02-24T14:05:43;97936.06;;;-1.20;55.45
39051;BME280;24805;55.852;37.644;2023-02-24T14:10:52;97944.31;;;-1.24;55.84
39051;BME280;24805;55.852;37.644;2023-02-24T14:15:57;97948.84;;;-1.26;55.67
39051;BME280;24805;55.852;37.644;2023-02-24T14:21:00;97945.81;;;-1.31;55.38
39051;BME280;24805;55.852;37.644;2023-02-24T14:26:11;97938.56;;;-1.28;55.06
39051;BME280;24805;55.852;37.644;2023-02-24T14:31:15;97956.38;;;-1.33;55.50
39051;BME280;24805;55.852;37.644;2023-02-24T14:36:26;97941.84;;;-1.26;54.89
39051;BME280;24805;55.852;37.644;2023-02-24T14:41:29;97935.41;;;-1.31;55.27
39051;BME280;24805;55.852;37.644;2023-02-24T14:46:31;97943.78;;;-1.28;55.68
39051;BME280;24805;55.852;37.644;2023-02-24T14:51:35;97951.03;;;-1.31;55.74
39051;BME280;24805;55.852;37.644;2023-02-24T14:56:37;97943.38;;;-1.33;55.31
39051;BME280;24805;55.852;37.644;2023-02-24T15:01:43;97937.88;;;-1.30;56.02
39051;BME280;24805;55.852;37.644;2023-02-24T15:06:47;97940.09;;;-1.35;55.99
39051;BME280;24805;55.852;37.644;2023-02-24T15:11:51;97948.69;;;-1.25;56.54
39051;BME280;24805;55.852;37.644;2023-02-24T15:17:00;97954.00;;;-1.17;57.98
39051;BME280;24805;55.852;37.644;2023-02-24T15:22:18;97950.44;;;-1.16;57.84
39051;BME280;24805;55.852;37.644;2023-02-24T15:27:24;97947.19;;;-1.27;59.23
39051;BME280;24805;55.852;37.644;2023-02-24T15:32:28;97937.47;;;-1.35;59.58
39051;BME280;24805;55.852;37.644;2023-02-24T15:37:41;97934.06;;;-1.35;58.16
39051;BME280;24805;55.852;37.644;2023-02-24T15:42:59;97937.75;;;-1.38;58.43
39051;BME280;24805;55.852;37.644;2023-02-24T15:48:24;97933.38;;;-1.38;58.31
39051;BME280;24805;55.852;37.644;2023-02-24T15:53:30;97929.59;;;-1.53;59.30
39051;BME280;24805;55.852;37.644;2023-02-24T15:58:33;97934.38;;;-1.48;59.08
39051;BME280;24805;55.852;37.644;2023-02-24T16:03:37;97927.81;;;-1.52;59.76
39051;BME280;24805;55.852;37.644;2023-02-24T16:08:40;97926.72;;;-1.50;60.01
39051;BME280;24805;55.852;37.644;2023-02-24T16:13:58;97909.19;;;-1.57;60.00
39051;BME280;24805;55.852;37.644;2023-02-24T16:19:00;97920.97;;;-1.53;60.52
39051;BME280;24805;55.852;37.644;2023-02-24T16:24:02;97919.47;;;-1.56;60.80
39051;BME280;24805;55.852;37.644;2023-02-24T16:29:05;97895.69;;;-1.61;60.58
39051;BME280;24805;55.852;37.644;2023-02-24T16:34:14;97901.66;;;-1.41;60.80
39051;BME280;24805;55.852;37.644;2023-02-24T16:39:16;97907.00;;;-1.43;61.62
39051;BME280;24805;55.852;37.644;2023-02-24T16:44:18;97894.06;;;-1.34;61.21
39051;BME280;24805;55.852;37.644;2023-02-24T16:49:20;97901.75;;;-1.33;60.94
39051;BME280;24805;55.852;37.644;2023-02-24T16:54:23;97894.34;;;-1.28;61.95
39051;BME280;24805;55.852;37.644;2023-02-24T16:59:30;97885.97;;;-1.22;61.58
39051;BME280;24805;55.852;37.644;2023-02-24T17:04:32;97884.84;;;-1.19;61.84
39051;BME280;24805;55.852;37.644;2023-02-24T17:09:34;97877.28;;;-1.13;61.47
39051;BME280;24805;55.852;37.644;2023-02-24T17:14:36;97879.94;;;-0.95;61.53
39051;BME280;24805;55.852;37.644;2023-02-24T17:19:38;97867.66;;;-1.02;62.32
39051;BME280;24805;55.852;37.644;2023-02-24T17:24:40;97859.38;;;-0.98;62.40
39051;BME280;24805;55.852;37.644;2023-02-24T17:29:42;97866.38;;;-0.98;62.41
39051;BME280;24805;55.852;37.644;2023-02-24T17:34:44;97860.13;;;-1.06;62.56
39051;BME280;24805;55.852;37.644;2023-02-24T17:39:46;97846.16;;;-1.05;62.98
39051;BME280;24805;55.852;37.644;2023-02-24T17:44:48;97845.47;;;-1.07;62.71
39051;BME280;24805;55.852;37.644;2023-02-24T17:49:51;97837.81;;;-1.08;62.34
39051;BME280;24805;55.852;37.644;2023-02-24T17:54:53;97841.03;;;-0.96;62.02
39051;BME280;24805;55.852;37.644;2023-02-24T17:59:55;97825.63;;;-1.08;61.94
39051;BME280;24805;55.852;37.644;2023-02-24T18:04:58;97820.56;;;-1.09;63.41
39051;BME280;24805;55.852;37.644;2023-02-24T18:10:00;97817.66;;;-1.06;63.20
39051;BME280;24805;55.852;37.644;2023-02-24T18:15:05;97819.03;;;-1.02;62.60
39051;BME280;24805;55.852;37.644;2023-02-24T18:20:10;97811.72;;;-0.98;63.68
39051;BME280;24805;55.852;37.644;2023-02-24T18:25:13;97810.06;;;-0.99;62.92
39051;BME280;24805;55.852;37.644;2023-02-24T18:30:15;97805.25;;;-0.94;63.61
39051;BME280;24805;55.852;37.644;2023-02-24T18:35:19;97802.66;;;-0.94;62.89
39051;BME280;24805;55.852;37.644;2023-02-24T18:40:27;97785.25;;;-0.94;63.26
39051;BME280;24805;55.852;37.644;2023-02-24T18:45:29;97785.94;;;-0.92;62.77
39051;BME280;24805;55.852;37.644;2023-02-24T18:50:32;97784.28;;;-0.93;62.85
39051;BME280;24805;55.852;37.644;2023-02-24T18:55:34;97772.25;;;-0.94;63.36
39051;BME280;24805;55.852;37.644;2023-02-24T19:00:36;97759.38;;;-0.95;62.83
39051;BME280;24805;55.852;37.644;2023-02-24T19:05:39;97759.06;;;-0.92;63.62
39051;BME280;24805;55.852;37.644;2023-02-24T19:10:41;97729.56;;;-1.01;63.55
39051;BME280;24805;55.852;37.644;2023-02-24T19:15:44;97739.97;;;-0.83;63.18
39051;BME280;24805;55.852;37.644;2023-02-24T19:20:46;97710.44;;;-0.92;63.64
39051;BME280;24805;55.852;37.644;2023-02-24T19:25:48;97727.16;;;-0.77;63.35
39051;BME280;24805;55.852;37.644;2023-02-24T19:30:50;97732.06;;;-0.74;64.04
39051;BME280;24805;55.852;37.644;2023-02-24T19:35:57;97725.16;;;-0.65;63.38
39051;BME280;24805;55.852;37.644;2023-02-24T19:41:00;97719.56;;;-0.70;63.74
39051;BME280;24805;55.852;37.644;2023-02-24T19:46:06;97694.59;;;-0.81;63.82
39051;BME280;24805;55.852;37.644;2023-02-24T19:51:14;97725.50;;;-0.60;64.22
39051;BME280;24805;55.852;37.644;2023-02-24T19:56:21;97715.16;;;-0.52;63.60
39051;BME280;24805;55.852;37.644;2023-02-24T20:01:25;97704.72;;;-0.52;63.52
39051;BME280;24805;55.852;37.644;2023-02-24T20:06:34;97682.50;;;-0.64;64.12
39051;BME280;24805;55.852;37.644;2023-02-24T20:11:38;97697.22;;;-0.55;64.00
39051;BME280;24805;55.852;37.644;2023-02-24T20:16:41;97692.66;;;-0.53;63.98
39051;BME280;24805;55.852;37.644;2023-02-24T20:21:43;97700.13;;;-0.58;63.49
39051;BME280;24805;55.852;37.644;2023-02-24T20:26:47;97668.00;;;-0.66;63.46
39051;BME280;24805;55.852;37.644;2023-02-24T20:31:50;97673.09;;;-0.57;63.85
39051;BME280;24805;55.852;37.644;2023-02-24T20:36:52;97674.97;;;-0.49;64.30
39051;BME280;24805;55.852;37.644;2023-02-24T20:41:54;97666.84;;;-0.46;63.76
39051;BME280;24805;55.852;37.644;2023-02-24T20:46:56;97666.03;;;-0.47;63.26
39051;BME280;24805;55.852;37.644;2023-02-24T20:51:59;97646.38;;;-0.59;63.72
39051;BME280;24805;55.852;37.644;2023-02-24T20:57:01;97658.22;;;-0.47;63.55
39051;BME280;24805;55.852;37.644;2023-02-24T21:02:03;97657.25;;;-0.46;63.30
39051;BME280;24805;55.852;37.644;2023-02-24T21:07:05;97627.19;;;-0.58;64.04
39051;BME280;24805;55.852;37.644;2023-02-24T21:12:07;97653.22;;;-0.40;63.83
39051;BME280;24805;55.852;37.644;2023-02-24T21:17:10;97652.88;;;-0.37;63.85
39051;BME280;24805;55.852;37.644;2023-02-24T21:22:13;97651.09;;;-0.37;63.81
39051;BME280;24805;55.852;37.644;2023-02-24T21:27:15;97644.59;;;-0.32;64.08
39051;BME280;24805;55.852;37.644;2023-02-24T21:32:17;97639.38;;;-0.32;64.03
39051;BME280;24805;55.852;37.644;2023-02-24T21:37:19;97633.06;;;-0.30;63.54
39051;BME280;24805;55.852;37.644;2023-02-24T21:42:21;97633.72;;;-0.28;63.76
39051;BME280;24805;55.852;37.644;2023-02-24T21:47:23;97627.06;;;-0.22;63.82
39051;BME280;24805;55.852;37.644;2023-02-24T21:52:26;97616.97;;;-0.25;64.08
39051;BME280;24805;55.852;37.644;2023-02-24T21:57:29;97617.28;;;-0.28;63.75
39051;BME280;24805;55.852;37.644;2023-02-24T22:02:31;97622.19;;;-0.25;64.07
39051;BME280;24805;55.852;37.644;2023-02-24T22:07:35;97620.72;;;-0.20;63.49
39051;BME280;24805;55.852;37.644;2023-02-24T22:12:38;97620.91;;;-0.21;63.85
39051;BME280;24805;55.852;37.644;2023-02-24T22:17:40;97602.97;;;-0.24;63.61
39051;BME280;24805;55.852;37.644;2023-02-24T22:22:42;97607.53;;;-0.18;64.21
39051;BME280;24805;55.852;37.644;2023-02-24T22:27:45;97594.19;;;-0.15;63.89
39051;BME280;24805;55.852;37.644;2023-02-24T22:32:47;97592.03;;;-0.20;64.38
39051;BME280;24805;55.852;37.644;2023-02-24T22:37:49;97585.41;;;-0.14;65.12
39051;BME280;24805;55.852;37.644;2023-02-24T22:42:51;97582.94;;;-0.16;63.57
39051;BME280;24805;55.852;37.644;2023-02-24T22:47:53;97586.22;;;-0.14;63.76
39051;BME280;24805;55.852;37.644;2023-02-24T22:52:55;97570.22;;;-0.19;64.41
39051;BME280;24805;55.852;37.644;2023-02-24T22:57:57;97563.72;;;-0.15;65.00
39051;BME280;24805;55.852;37.644;2023-02-24T23:02:59;97567.00;;;-0.13;64.46
39051;BME280;24805;55.852;37.644;2023-02-24T23:08:01;97559.19;;;-0.13;65.02
39051;BME280;24805;55.852;37.644;2023-02-24T23:13:04;97562.91;;;-0.15;64.57
39051;BME280;24805;55.852;37.644;2023-02-24T23:18:06;97537.66;;;-0.23;64.85
39051;BME280;24805;55.852;37.644;2023-02-24T23:23:08;97549.41;;;-0.11;64.49
39051;BME280;24805;55.852;37.644;2023-02-24T23:28:11;97552.00;;;-0.11;64.72
39051;BME280;24805;55.852;37.644;2023-02-24T23:33:13;97539.66;;;-0.09;65.09
39051;BME280;24805;55.852;37.644;2023-02-24T23:38:15;97540.16;;;-0.05;65.17
39051;BME280;24805;55.852;37.644;2023-02-24T23:43:18;97528.75;;;-0.04;64.77
39051;BME280;24805;55.852;37.644;2023-02-24T23:48:20;97520.78;;;-0.03;64.56
39051;BME280;24805;55.852;37.644;2023-02-24T23:53:23;97517.66;;;0.02;65.38
39051;BME280;24805;55.852;37.644;2023-02-24T23:58:25;97508.22;;;0.01;64.78
